createdAt,value
2022-10-16T00:00:26.091Z,23.00
2022-10-16T00:02:36.776Z,23.00
2022-10-16T00:04:53.349Z,23.00
2022-10-16T00:07:04.325Z,23.00
2022-10-16T00:09:11.896Z,23.10
2022-10-16T00:11:26.041Z,23.10
2022-10-16T00:13:31.315Z,23.10
2022-10-16T00:15:38.513Z,23.10
2022-10-16T00:17:43.224Z,23.10
2022-10-16T00:19:47.734Z,23.00
2022-10-16T00:21:53.850Z,23.10
2022-10-16T00:24:16.475Z,23.00
2022-10-16T00:26:20.726Z,23.00
2022-10-16T00:28:25.498Z,23.00
2022-10-16T00:30:30.835Z,23.00
2022-10-16T00:32:35.161Z,23.10
2022-10-16T00:34:41.602Z,23.10
2022-10-16T00:36:49.818Z,23.00
2022-10-16T00:41:19.293Z,23.10
2022-10-16T00:43:37.359Z,23.10
2022-10-16T00:45:43.011Z,23.20
2022-10-16T00:48:07.819Z,23.20
2022-10-16T00:50:16.239Z,23.20
2022-10-16T00:52:25.738Z,23.20
2022-10-16T00:54:32.061Z,23.10
2022-10-16T00:56:44.379Z,23.10
2022-10-16T00:58:48.858Z,23.20
2022-10-16T01:00:58.215Z,23.30
2022-10-16T01:03:23.841Z,23.20
2022-10-16T01:05:42.971Z,23.20
2022-10-16T01:08:07.109Z,23.20
2022-10-16T01:10:19.564Z,23.10
2022-10-16T01:12:38.482Z,23.00
2022-10-16T01:15:11.146Z,23.00
2022-10-16T01:17:53.626Z,23.10
2022-10-16T01:20:18.829Z,23.10
2022-10-16T01:22:34.439Z,23.20
2022-10-16T01:27:19.297Z,23.10
2022-10-16T01:29:29.245Z,23.30
2022-10-16T01:31:39.974Z,23.40
2022-10-16T01:33:50.391Z,23.40
2022-10-16T01:36:01.433Z,23.40
2022-10-16T01:38:10.518Z,23.30
2022-10-16T01:40:18.959Z,23.40
2022-10-16T01:42:26.306Z,23.50
2022-10-16T01:44:38.368Z,23.50
2022-10-16T01:46:48.934Z,23.50
2022-10-16T01:49:00.213Z,23.60
2022-10-16T01:51:17.279Z,23.60
2022-10-16T01:53:22.828Z,23.40
2022-10-16T01:55:46.977Z,23.50
2022-10-16T01:57:51.314Z,23.60
2022-10-16T02:00:03.225Z,23.60
2022-10-16T02:02:23.099Z,23.60
2022-10-16T02:04:32.454Z,23.70
2022-10-16T02:06:40.091Z,23.70
2022-10-16T02:08:46.355Z,23.80
2022-10-16T02:10:50.924Z,23.70
2022-10-16T02:13:03.218Z,23.70
2022-10-16T02:15:11.520Z,23.70
2022-10-16T02:17:16.731Z,23.80
2022-10-16T02:19:24.182Z,23.80
2022-10-16T02:21:28.719Z,23.70
2022-10-16T02:23:36.095Z,23.50
2022-10-16T02:25:47.121Z,23.60
2022-10-16T02:27:56.422Z,23.60
2022-10-16T02:30:11.584Z,23.70
2022-10-16T02:32:17.947Z,23.70
2022-10-16T02:34:22.334Z,23.80
2022-10-16T02:36:27.025Z,23.80
2022-10-16T02:38:34.460Z,23.70
2022-10-16T02:40:40.775Z,23.80
2022-10-16T02:42:45.112Z,23.90
2022-10-16T02:44:50.850Z,24.00
2022-10-16T02:46:57.235Z,24.00
2022-10-16T02:49:02.254Z,24.00
2022-10-16T02:51:08.923Z,24.00
2022-10-16T02:53:13.845Z,24.10
2022-10-16T02:55:20.685Z,24.20
2022-10-16T02:57:27.743Z,24.30
2022-10-16T02:59:32.176Z,24.40
2022-10-16T03:01:37.029Z,24.50
2022-10-16T03:03:43.714Z,24.50
2022-10-16T03:05:49.926Z,24.50
2022-10-16T03:07:56.817Z,24.40
2022-10-16T03:10:02.389Z,24.20
2022-10-16T03:12:17.647Z,24.10
2022-10-16T03:14:21.544Z,24.10
2022-10-16T03:16:28.867Z,24.10
2022-10-16T03:18:34.892Z,24.10
2022-10-16T03:20:39.490Z,24.20
2022-10-16T03:22:46.670Z,24.30
2022-10-16T03:24:59.305Z,24.40
2022-10-16T03:27:13.507Z,24.30
2022-10-16T03:29:22.469Z,24.30
2022-10-16T03:31:44.228Z,24.30
2022-10-16T03:33:55.958Z,24.50
2022-10-16T03:36:05.776Z,24.60
2022-10-16T03:38:29.149Z,24.60
2022-10-16T03:40:45.197Z,24.70
2022-10-16T03:42:59.915Z,24.60
2022-10-16T03:45:17.620Z,24.60
2022-10-16T03:47:31.151Z,24.70
2022-10-16T03:49:40.950Z,24.70
2022-10-16T03:51:48.248Z,24.80
2022-10-16T03:53:55.845Z,24.90
2022-10-16T03:56:08.300Z,25.10
2022-10-16T03:58:17.796Z,25.10
2022-10-16T04:00:44.920Z,25.30
2022-10-16T04:02:52.613Z,25.20
2022-10-16T04:04:59.124Z,25.00
2022-10-16T04:07:05.035Z,25.00
2022-10-16T04:09:13.970Z,25.00
2022-10-16T04:11:20.346Z,25.20
2022-10-16T04:13:25.997Z,25.20
2022-10-16T04:15:32.146Z,25.10
2022-10-16T04:17:38.651Z,25.10
2022-10-16T04:19:44.095Z,25.10
2022-10-16T04:21:50.421Z,25.10
2022-10-16T04:24:00.484Z,25.10
2022-10-16T04:26:05.262Z,25.20
2022-10-16T04:28:12.767Z,25.30
2022-10-16T04:30:22.437Z,25.30
2022-10-16T04:32:26.399Z,25.30
2022-10-16T04:34:33.066Z,25.40
2022-10-16T04:36:40.280Z,25.20
2022-10-16T04:38:45.911Z,25.20
2022-10-16T04:40:52.001Z,25.10
2022-10-16T04:42:58.307Z,25.10
2022-10-16T04:45:02.283Z,25.20
2022-10-16T04:47:07.539Z,25.10
2022-10-16T04:49:13.515Z,25.20
2022-10-16T04:51:17.281Z,25.30
2022-10-16T04:53:25.055Z,25.30
2022-10-16T04:55:31.553Z,25.30
2022-10-16T04:57:35.516Z,25.30
2022-10-16T04:59:41.616Z,25.40
2022-10-16T05:01:45.461Z,25.50
2022-10-16T05:03:50.032Z,25.50
2022-10-16T05:05:55.241Z,25.60
2022-10-16T05:07:59.681Z,25.60
2022-10-16T05:10:13.637Z,25.70
2022-10-16T05:12:37.996Z,25.70
2022-10-16T05:14:49.837Z,25.70
2022-10-16T05:17:03.754Z,25.80
2022-10-16T05:19:26.729Z,25.70
2022-10-16T05:21:31.121Z,25.80
2022-10-16T05:23:35.144Z,25.80
2022-10-16T05:25:43.308Z,25.70
2022-10-16T05:27:50.928Z,25.70
2022-10-16T05:29:55.029Z,25.70
2022-10-16T05:32:03.635Z,25.80
2022-10-16T05:34:07.875Z,25.90
2022-10-16T05:36:12.282Z,26.00
2022-10-16T05:38:20.334Z,26.00
2022-10-16T05:40:24.436Z,26.00
2022-10-16T05:42:28.431Z,26.00
2022-10-16T05:44:37.182Z,26.00
2022-10-16T05:46:42.028Z,26.00
2022-10-16T05:48:46.194Z,26.00
2022-10-16T05:50:54.825Z,26.00
2022-10-16T05:52:59.021Z,26.00
2022-10-16T05:55:03.041Z,26.10
2022-10-16T05:57:10.476Z,26.00
2022-10-16T05:59:14.911Z,26.00
2022-10-16T06:01:19.562Z,26.00
2022-10-16T06:03:27.786Z,25.90
2022-10-16T06:05:32.279Z,25.80
2022-10-16T06:07:37.499Z,25.60
2022-10-16T06:09:45.929Z,25.50
2022-10-16T06:11:50.276Z,25.60
2022-10-16T06:13:56.118Z,25.70
2022-10-16T06:16:00.586Z,25.80
2022-10-16T06:18:18.879Z,25.80
2022-10-16T06:20:34.085Z,25.90
2022-10-16T06:22:44.980Z,25.80
2022-10-16T06:24:49.680Z,25.90
2022-10-16T06:26:56.664Z,26.00
2022-10-16T06:29:05.117Z,26.00
2022-10-16T06:31:10.546Z,26.10
2022-10-16T06:33:14.617Z,26.10
2022-10-16T06:35:22.720Z,26.20
2022-10-16T06:37:27.228Z,26.30
2022-10-16T06:39:31.638Z,26.20
2022-10-16T06:41:42.302Z,26.20
2022-10-16T06:43:52.820Z,26.40
2022-10-16T06:45:57.542Z,26.40
2022-10-16T06:48:05.918Z,26.40
2022-10-16T06:50:09.924Z,26.50
2022-10-16T06:52:13.995Z,26.60
2022-10-16T06:54:21.870Z,26.70
2022-10-16T06:56:26.755Z,26.60
2022-10-16T06:58:30.939Z,26.60
2022-10-16T07:00:34.947Z,26.70
2022-10-16T07:02:39.527Z,26.70
2022-10-16T07:04:43.369Z,26.90
2022-10-16T07:06:52.015Z,26.90
2022-10-16T07:08:56.358Z,26.90
2022-10-16T07:11:01.699Z,26.80
2022-10-16T07:13:09.511Z,26.80
2022-10-16T07:15:14.549Z,26.80
2022-10-16T07:17:18.460Z,26.90
2022-10-16T07:19:30.619Z,26.80
2022-10-16T07:21:38.936Z,26.80
2022-10-16T07:23:42.828Z,26.60
2022-10-16T07:25:51.356Z,26.70
2022-10-16T07:27:58.703Z,26.60
2022-10-16T07:30:06.488Z,26.50
2022-10-16T07:32:15.951Z,26.50
2022-10-16T07:34:28.488Z,26.50
2022-10-16T07:36:39.146Z,26.50
2022-10-16T07:38:46.776Z,26.40
2022-10-16T07:40:50.827Z,26.50
2022-10-16T07:42:55.493Z,26.40
2022-10-16T07:45:02.858Z,26.40
2022-10-16T07:47:07.764Z,26.50
2022-10-16T07:49:12.748Z,26.50
2022-10-16T07:51:18.031Z,26.60
2022-10-16T07:53:24.805Z,26.60
2022-10-16T07:55:31.265Z,26.50
2022-10-16T07:57:35.658Z,26.40
2022-10-16T07:59:39.706Z,26.40
2022-10-16T08:01:44.491Z,26.50
2022-10-16T08:03:51.527Z,26.60
2022-10-16T08:05:56.422Z,26.70
2022-10-16T08:08:01.069Z,26.60
2022-10-16T08:10:10.070Z,26.50
2022-10-16T08:12:14.022Z,26.50
2022-10-16T08:14:18.019Z,26.50
2022-10-16T08:16:25.863Z,26.60
2022-10-16T08:18:30.233Z,26.60
2022-10-16T08:20:34.830Z,26.60
2022-10-16T08:22:39.052Z,26.60
2022-10-16T08:24:43.497Z,26.50
2022-10-16T08:26:49.009Z,26.40
2022-10-16T08:28:56.047Z,26.40
2022-10-16T08:31:08.317Z,26.50
2022-10-16T08:33:12.622Z,26.40
2022-10-16T08:35:17.072Z,26.40
2022-10-16T08:37:24.106Z,26.50
2022-10-16T08:39:29.758Z,26.60
2022-10-16T08:42:04.707Z,26.60
2022-10-16T08:44:10.583Z,26.60
2022-10-16T08:46:33.871Z,26.60
2022-10-16T08:48:44.243Z,26.60
2022-10-16T08:50:48.355Z,26.60
2022-10-16T08:52:52.985Z,26.80
2022-10-16T08:55:02.086Z,26.70
2022-10-16T08:57:19.827Z,26.70
2022-10-16T08:59:27.213Z,26.60
2022-10-16T09:01:39.367Z,26.60
2022-10-16T09:03:52.556Z,26.70
2022-10-16T09:05:57.833Z,26.60
2022-10-16T09:08:02.216Z,26.60
2022-10-16T09:10:26.433Z,26.60
2022-10-16T09:12:31.084Z,26.40
2022-10-16T09:14:40.611Z,26.30
2022-10-16T09:16:47.162Z,26.30
2022-10-16T09:18:51.123Z,26.40
2022-10-16T09:21:03.037Z,26.40
2022-10-16T09:23:14.507Z,26.40
2022-10-16T09:25:19.864Z,26.40
2022-10-16T09:27:30.616Z,26.50
2022-10-16T09:29:34.576Z,26.40
2022-10-16T09:31:40.072Z,26.50
2022-10-16T09:33:48.426Z,26.40
2022-10-16T09:35:53.358Z,26.40
2022-10-16T09:37:57.860Z,26.30
2022-10-16T09:40:07.672Z,26.40
2022-10-16T09:42:12.768Z,26.30
2022-10-16T09:44:31.871Z,26.30
2022-10-16T09:46:43.636Z,26.30
2022-10-16T09:48:49.958Z,26.30
2022-10-16T09:50:57.923Z,26.30
2022-10-16T09:53:06.586Z,26.20
2022-10-16T09:55:18.643Z,26.20
2022-10-16T09:57:22.663Z,26.30
2022-10-16T09:59:29.772Z,26.30
2022-10-16T10:01:40.954Z,26.30
2022-10-16T10:03:45.163Z,26.20
2022-10-16T10:05:51.852Z,26.20
2022-10-16T10:07:56.616Z,26.20
2022-10-16T10:10:00.470Z,26.10
2022-10-16T10:12:05.047Z,26.00
2022-10-16T10:14:22.174Z,26.10
2022-10-16T10:16:26.724Z,26.10
2022-10-16T10:18:35.969Z,26.20
2022-10-16T10:20:42.100Z,26.20
2022-10-16T10:22:47.859Z,26.20
2022-10-16T10:25:05.114Z,26.20
2022-10-16T10:27:14.821Z,26.20
2022-10-16T10:29:21.463Z,26.30
2022-10-16T10:31:50.229Z,26.20
2022-10-16T10:33:59.040Z,26.10
2022-10-16T10:36:15.619Z,26.10
2022-10-16T10:38:31.867Z,26.10
2022-10-16T10:40:42.216Z,26.10
2022-10-16T10:42:56.014Z,26.00
2022-10-16T10:45:05.081Z,26.10
2022-10-16T10:47:16.074Z,26.10
2022-10-16T10:49:29.581Z,26.00
2022-10-16T10:51:51.667Z,26.10
2022-10-16T10:54:17.941Z,26.10
2022-10-16T10:56:40.583Z,26.20
2022-10-16T10:58:59.762Z,26.20
2022-10-16T11:01:04.040Z,26.20
2022-10-16T11:03:30.022Z,26.20
2022-10-16T11:05:48.507Z,26.20
2022-10-16T11:08:12.747Z,26.20
2022-10-16T11:10:16.835Z,26.20
2022-10-16T11:12:30.465Z,26.10
2022-10-16T11:14:52.997Z,26.20
2022-10-16T11:17:01.588Z,26.10
2022-10-16T11:19:17.145Z,26.10
2022-10-16T11:21:45.994Z,26.10
2022-10-16T11:23:56.399Z,26.10
2022-10-16T11:26:05.006Z,26.10
2022-10-16T11:28:13.792Z,26.10
2022-10-16T11:30:17.868Z,26.00
2022-10-16T11:32:25.542Z,26.10
2022-10-16T11:34:41.211Z,26.00
2022-10-16T11:36:47.404Z,26.00
2022-10-16T11:39:03.503Z,26.00
2022-10-16T11:41:31.220Z,26.00
2022-10-16T11:43:51.041Z,26.00
2022-10-16T11:46:06.515Z,26.00
2022-10-16T11:48:17.344Z,26.00
2022-10-16T11:50:30.866Z,26.00
2022-10-16T11:52:58.471Z,25.90
2022-10-16T11:55:06.739Z,25.90
2022-10-16T11:57:17.900Z,25.90
2022-10-16T11:59:56.777Z,25.80
2022-10-16T12:02:21.016Z,25.80
2022-10-16T12:04:34.631Z,25.80
2022-10-16T12:06:43.703Z,25.80
2022-10-16T12:08:48.576Z,25.80
2022-10-16T12:10:52.505Z,25.80
2022-10-16T12:13:00.927Z,25.80
2022-10-16T12:15:35.189Z,25.80
2022-10-16T12:17:53.905Z,25.70
2022-10-16T12:20:21.717Z,25.70
2022-10-16T12:22:36.858Z,25.70
2022-10-16T12:24:46.663Z,25.70
2022-10-16T12:26:50.630Z,25.70
2022-10-16T12:28:55.734Z,25.70
2022-10-16T12:31:03.804Z,25.70
2022-10-16T12:33:08.561Z,25.60
2022-10-16T12:35:28.806Z,25.60
2022-10-16T12:37:36.686Z,25.60
2022-10-16T12:39:42.925Z,25.60
2022-10-16T12:41:49.230Z,25.60
2022-10-16T12:43:52.986Z,25.60
2022-10-16T12:46:06.416Z,25.60
2022-10-16T12:48:29.194Z,25.60
2022-10-16T12:50:42.650Z,25.60
2022-10-16T12:52:46.996Z,25.60
2022-10-16T12:54:54.051Z,25.50
2022-10-16T12:57:06.868Z,25.50
2022-10-16T12:59:16.131Z,25.50
2022-10-16T13:01:23.098Z,25.50
2022-10-16T13:03:27.279Z,25.50
2022-10-16T13:05:52.224Z,25.50
2022-10-16T13:08:09.261Z,25.50
2022-10-16T13:10:16.188Z,25.50
2022-10-16T13:12:39.396Z,25.40
2022-10-16T13:14:59.553Z,25.40
2022-10-16T13:17:07.934Z,25.40
2022-10-16T13:19:13.955Z,25.40
2022-10-16T13:21:23.204Z,25.40
2022-10-16T13:25:57.668Z,25.40
2022-10-16T13:28:05.671Z,25.40
2022-10-16T13:30:15.184Z,25.40
2022-10-16T13:32:19.376Z,25.40
2022-10-16T13:34:24.609Z,25.40
2022-10-16T13:36:31.751Z,25.30
2022-10-16T13:38:36.760Z,25.30
2022-10-16T13:41:02.348Z,25.30
2022-10-16T13:43:11.819Z,25.30
2022-10-16T13:45:21.692Z,25.30
2022-10-16T13:47:30.277Z,25.30
2022-10-16T13:49:38.295Z,25.30
2022-10-16T13:52:01.047Z,25.30
2022-10-16T13:54:11.916Z,25.30
2022-10-16T13:56:23.686Z,25.30
2022-10-16T13:58:30.688Z,25.30
2022-10-16T14:02:52.879Z,25.30
2022-10-16T14:05:07.350Z,25.30
2022-10-16T14:07:21.549Z,25.30
2022-10-16T14:12:06.829Z,25.30
2022-10-16T14:14:17.656Z,25.30
2022-10-16T14:16:25.693Z,25.30
2022-10-16T14:18:33.345Z,25.30
2022-10-16T14:20:40.204Z,25.30
2022-10-16T14:22:44.268Z,25.30
2022-10-16T14:24:50.274Z,25.30
2022-10-16T14:26:57.029Z,25.20
2022-10-16T14:29:12.962Z,25.20
2022-10-16T14:31:29.001Z,25.20
2022-10-16T14:33:38.604Z,25.30
2022-10-16T14:35:42.491Z,25.20
2022-10-16T14:37:47.148Z,25.30
2022-10-16T14:39:52.007Z,25.30
2022-10-16T14:41:58.424Z,25.30
2022-10-16T14:44:07.999Z,25.20
2022-10-16T14:46:15.284Z,25.20
2022-10-16T14:48:20.005Z,25.30
2022-10-16T14:50:26.638Z,25.20
2022-10-16T14:52:30.658Z,25.30
2022-10-16T14:54:35.370Z,25.20
2022-10-16T14:56:58.717Z,25.20
2022-10-16T14:59:04.665Z,25.30
2022-10-16T15:01:10.606Z,25.30
2022-10-16T15:03:14.488Z,25.20
2022-10-16T15:05:20.958Z,25.20
2022-10-16T15:07:26.394Z,25.20
2022-10-16T15:09:33.198Z,25.20
2022-10-16T15:11:37.671Z,25.20
2022-10-16T15:13:41.844Z,25.20
2022-10-16T15:15:51.278Z,25.20
2022-10-16T15:17:57.782Z,25.20
2022-10-16T15:20:01.729Z,25.10
2022-10-16T15:22:06.774Z,25.10
2022-10-16T15:24:15.361Z,25.10
2022-10-16T15:26:21.896Z,25.10
2022-10-16T15:28:27.043Z,25.20
2022-10-16T15:30:33.645Z,25.20
2022-10-16T15:32:37.522Z,25.10
2022-10-16T15:34:41.862Z,25.00
2022-10-16T15:36:47.916Z,25.10
2022-10-16T15:38:52.348Z,25.10
2022-10-16T15:40:58.420Z,25.10
2022-10-16T15:43:04.698Z,25.10
2022-10-16T15:45:09.124Z,25.10
2022-10-16T15:47:13.061Z,25.10
2022-10-16T15:49:19.476Z,24.90
2022-10-16T15:51:23.470Z,24.90
2022-10-16T15:53:29.503Z,24.90
2022-10-16T15:55:33.649Z,24.80
2022-10-16T15:57:40.099Z,24.90
2022-10-16T15:59:46.058Z,24.90
2022-10-16T16:01:52.444Z,24.80
2022-10-16T16:03:56.469Z,24.90
2022-10-16T16:06:02.690Z,24.90
2022-10-16T16:08:09.073Z,25.00
2022-10-16T16:10:13.061Z,25.00
2022-10-16T16:12:17.344Z,24.90
2022-10-16T16:14:21.498Z,24.80
2022-10-16T16:16:25.703Z,24.70
2022-10-16T16:18:30.716Z,24.80
2022-10-16T16:20:36.939Z,24.80
2022-10-16T16:22:40.983Z,24.80
2022-10-16T16:24:47.974Z,24.80
2022-10-16T16:26:52.200Z,24.80
2022-10-16T16:28:57.432Z,24.90
2022-10-16T16:31:03.704Z,24.90
2022-10-16T16:33:12.087Z,24.90
2022-10-16T16:35:15.978Z,24.80
2022-10-16T16:37:22.399Z,24.90
2022-10-16T16:39:28.412Z,24.60
2022-10-16T16:41:32.587Z,24.60
2022-10-16T16:43:38.536Z,24.70
2022-10-16T16:45:44.898Z,24.60
2022-10-16T16:47:48.710Z,24.70
2022-10-16T16:49:55.599Z,24.60
2022-10-16T16:51:59.808Z,24.60
2022-10-16T16:54:03.854Z,24.70
2022-10-16T16:56:10.451Z,24.70
2022-10-16T16:58:16.767Z,24.70
2022-10-16T17:00:20.658Z,24.70
2022-10-16T17:02:30.457Z,24.70
2022-10-16T17:04:36.555Z,24.70
2022-10-16T17:06:40.507Z,24.70
2022-10-16T17:08:46.579Z,24.80
2022-10-16T17:10:55.238Z,24.70
2022-10-16T17:12:59.082Z,24.70
2022-10-16T17:15:05.198Z,24.70
2022-10-16T17:17:10.232Z,24.60
2022-10-16T17:19:16.216Z,24.60
2022-10-16T17:21:22.400Z,24.50
2022-10-16T17:23:27.656Z,24.60
2022-10-16T17:25:34.059Z,24.60
2022-10-16T17:27:38.229Z,24.60
2022-10-16T17:29:44.556Z,24.50
2022-10-16T17:31:50.819Z,24.60
2022-10-16T17:33:57.111Z,24.60
2022-10-16T17:36:01.546Z,24.60
2022-10-16T17:38:06.091Z,24.70
2022-10-16T17:40:11.596Z,24.70
2022-10-16T17:42:18.116Z,24.70
2022-10-16T17:44:21.994Z,24.80
2022-10-16T17:46:41.119Z,24.80
2022-10-16T17:48:47.534Z,24.70
2022-10-16T17:50:51.388Z,24.70
2022-10-16T17:52:55.288Z,24.70
2022-10-16T17:55:00.669Z,24.60
2022-10-16T17:57:04.764Z,24.60
2022-10-16T17:59:11.239Z,24.60
2022-10-16T18:01:17.271Z,24.60
2022-10-16T18:03:21.816Z,24.50
2022-10-16T18:05:28.223Z,24.50
2022-10-16T18:07:35.381Z,24.50
2022-10-16T18:09:49.536Z,24.50
2022-10-16T18:12:07.196Z,24.50
2022-10-16T18:14:15.024Z,24.50
2022-10-16T18:16:19.738Z,24.40
2022-10-16T18:18:44.288Z,24.40
2022-10-16T18:20:57.093Z,24.40
2022-10-16T18:23:01.404Z,24.30
2022-10-16T18:25:09.248Z,24.40
2022-10-16T18:27:14.181Z,24.30
2022-10-16T18:29:18.566Z,24.30
2022-10-16T18:31:24.038Z,24.30
2022-10-16T18:33:31.802Z,24.30
2022-10-16T18:35:39.182Z,24.40
2022-10-16T18:37:45.819Z,24.30
2022-10-16T18:39:51.330Z,24.30
2022-10-16T18:42:00.512Z,24.30
2022-10-16T18:44:07.004Z,24.30
2022-10-16T18:46:16.343Z,24.30
2022-10-16T18:48:20.327Z,24.30
2022-10-16T18:50:25.030Z,24.30
2022-10-16T18:52:34.968Z,24.30
2022-10-16T18:54:39.934Z,24.30
2022-10-16T18:56:45.387Z,24.30
2022-10-16T18:58:51.832Z,24.30
2022-10-16T19:01:09.953Z,24.30
2022-10-16T19:03:19.785Z,23.80
2022-10-16T19:05:27.399Z,23.90
2022-10-16T19:07:51.427Z,24.00
2022-10-16T19:10:00.955Z,24.10
2022-10-16T19:12:19.480Z,24.20
2022-10-16T19:14:35.755Z,24.10
2022-10-16T19:16:44.024Z,24.00
2022-10-16T19:18:52.059Z,24.10
2022-10-16T19:20:58.117Z,24.10
2022-10-16T19:23:14.067Z,24.10
2022-10-16T19:25:29.018Z,24.10
2022-10-16T19:27:36.034Z,24.10
2022-10-16T19:29:47.098Z,24.10
2022-10-16T19:31:53.345Z,24.10
2022-10-16T19:34:00.810Z,24.10
2022-10-16T19:36:14.442Z,24.10
2022-10-16T19:38:29.109Z,24.10
2022-10-16T19:40:33.917Z,24.10
2022-10-16T19:42:48.293Z,24.10
2022-10-16T19:44:58.551Z,24.00
2022-10-16T19:47:06.237Z,24.00
2022-10-16T19:49:18.990Z,24.00
2022-10-16T19:51:32.665Z,24.00
2022-10-16T19:53:43.302Z,24.00
2022-10-16T19:55:49.081Z,24.00
2022-10-16T19:58:01.783Z,24.00
2022-10-16T20:00:10.086Z,23.90
2022-10-16T20:02:23.640Z,23.90
2022-10-16T20:04:28.361Z,23.90
2022-10-16T20:06:33.378Z,24.00
2022-10-16T20:08:41.266Z,24.00
2022-10-16T20:10:55.154Z,24.00
2022-10-16T20:13:00.486Z,24.00
2022-10-16T20:15:08.426Z,24.00
2022-10-16T20:17:13.840Z,24.00
2022-10-16T20:19:26.021Z,24.00
2022-10-16T20:21:34.400Z,24.00
2022-10-16T20:23:43.066Z,24.00
2022-10-16T20:25:51.285Z,24.00
2022-10-16T20:28:02.813Z,24.00
2022-10-16T20:30:08.374Z,24.00
2022-10-16T20:32:14.419Z,24.00
2022-10-16T20:34:30.072Z,23.90
2022-10-16T20:36:35.653Z,23.80
2022-10-16T20:38:42.273Z,23.80
2022-10-16T20:40:56.436Z,23.80
2022-10-16T20:43:03.208Z,23.80
2022-10-16T20:45:08.539Z,23.80
2022-10-16T20:47:15.830Z,23.80
2022-10-16T20:49:39.312Z,23.80
2022-10-16T20:51:45.033Z,23.70
2022-10-16T20:53:51.666Z,23.70
2022-10-16T20:55:57.962Z,23.70
2022-10-16T20:58:04.089Z,23.70
2022-10-16T21:00:10.516Z,23.70
2022-10-16T21:02:35.956Z,23.60
2022-10-16T21:04:41.996Z,23.60
2022-10-16T21:06:50.051Z,23.60
2022-10-16T21:09:06.041Z,23.60
2022-10-16T21:11:13.496Z,23.60
2022-10-16T21:13:20.074Z,23.60
2022-10-16T21:15:27.438Z,23.60
2022-10-16T21:17:32.418Z,23.50
2022-10-16T21:19:42.896Z,23.50
2022-10-16T21:21:48.442Z,23.50
2022-10-16T21:24:06.007Z,23.50
2022-10-16T21:26:14.285Z,23.50
2022-10-16T21:28:19.672Z,23.50
2022-10-16T21:30:24.337Z,23.50
2022-10-16T21:32:31.867Z,23.50
2022-10-16T21:34:38.168Z,23.50
2022-10-16T21:36:53.485Z,23.40
2022-10-16T21:39:07.949Z,23.40
2022-10-16T21:41:25.894Z,23.40
2022-10-16T21:43:49.674Z,23.40
2022-10-16T21:46:08.966Z,23.40
2022-10-16T21:48:20.737Z,23.30
2022-10-16T21:50:28.127Z,23.30
2022-10-16T21:52:39.347Z,23.30
2022-10-16T21:54:56.563Z,23.30
2022-10-16T21:57:00.365Z,23.30
2022-10-16T21:59:06.514Z,23.20
2022-10-16T22:01:12.693Z,23.20
2022-10-16T22:03:16.810Z,23.20
2022-10-16T22:05:21.742Z,23.20
2022-10-16T22:07:26.014Z,23.20
2022-10-16T22:09:30.267Z,23.20
2022-10-16T22:11:37.936Z,23.20
2022-10-16T22:13:42.744Z,23.20
2022-10-16T22:15:52.817Z,23.20
2022-10-16T22:17:57.769Z,23.20
2022-10-16T22:20:04.049Z,23.20
2022-10-16T22:22:08.223Z,23.10
2022-10-16T22:24:12.123Z,23.10
2022-10-16T22:26:16.063Z,23.00
2022-10-16T22:28:20.553Z,23.10
2022-10-16T22:30:27.761Z,23.10
2022-10-16T22:32:34.331Z,23.10
2022-10-16T22:34:39.938Z,23.10
2022-10-16T22:36:44.187Z,23.00
2022-10-16T22:38:49.060Z,23.00
2022-10-16T22:40:56.584Z,23.00
2022-10-16T22:43:04.585Z,23.00
2022-10-16T22:45:10.481Z,23.00
2022-10-16T22:47:27.290Z,23.00
2022-10-16T22:49:31.622Z,23.00
2022-10-16T22:51:41.029Z,23.00
2022-10-16T22:53:46.358Z,23.00
2022-10-16T22:55:52.833Z,22.90
2022-10-16T22:57:57.611Z,22.90
2022-10-16T23:00:04.934Z,22.90
2022-10-16T23:02:12.250Z,22.90
2022-10-16T23:04:18.621Z,22.90
2022-10-16T23:06:24.925Z,22.90
2022-10-16T23:08:30.337Z,22.80
2022-10-16T23:10:44.062Z,22.80
2022-10-16T23:12:48.883Z,22.80
2022-10-16T23:14:56.261Z,22.90
2022-10-16T23:17:02.162Z,22.90
2022-10-16T23:19:07.018Z,22.80
2022-10-16T23:21:12.185Z,22.90
2022-10-16T23:23:16.744Z,22.90
2022-10-16T23:25:22.249Z,22.90
2022-10-16T23:27:32.146Z,22.80
2022-10-16T23:29:38.559Z,22.80
2022-10-16T23:31:43.298Z,22.80
2022-10-16T23:33:50.565Z,22.80
2022-10-16T23:35:59.016Z,22.80
2022-10-16T23:38:02.953Z,22.80
2022-10-16T23:40:08.636Z,22.80
2022-10-16T23:42:17.365Z,22.80
2022-10-16T23:44:21.457Z,22.80
2022-10-16T23:46:29.312Z,22.90
2022-10-16T23:48:39.215Z,22.90
2022-10-16T23:50:44.640Z,22.90
2022-10-16T23:52:51.492Z,23.00
2022-10-16T23:54:59.297Z,22.90
2022-10-16T23:57:04.487Z,23.00
2022-10-16T23:59:09.859Z,22.90
